createdAt,value
2018-08-12T00:01:31.865Z,90.40
2018-08-12T00:06:36.589Z,90.80
2018-08-12T00:11:41.418Z,91.00
2018-08-12T00:16:46.377Z,90.80
2018-08-12T00:21:51.990Z,89.70
2018-08-12T00:26:56.601Z,89.20
2018-08-12T00:32:01.981Z,88.50
2018-08-12T00:37:07.234Z,87.60
2018-08-12T00:42:11.981Z,88.50
2018-08-12T00:47:16.694Z,87.50
2018-08-12T00:52:21.382Z,85.90
2018-08-12T00:57:26.585Z,85.10
2018-08-12T01:02:31.201Z,85.20
2018-08-12T01:07:35.944Z,85.40
2018-08-12T01:12:47.221Z,85.40
2018-08-12T01:17:51.987Z,85.50
2018-08-12T01:22:56.763Z,85.10
2018-08-12T01:28:01.565Z,85.20
2018-08-12T01:33:06.803Z,85.30
2018-08-12T01:38:11.760Z,84.90
2018-08-12T01:43:17.630Z,84.90
2018-08-12T01:48:22.581Z,84.70
2018-08-12T01:53:27.837Z,84.30
2018-08-12T01:58:32.524Z,84.70
2018-08-12T02:03:38.007Z,84.80
2018-08-12T02:08:42.962Z,85.40
2018-08-12T02:13:47.612Z,86.10
2018-08-12T02:18:52.452Z,86.70
2018-08-12T02:23:57.169Z,87.10
2018-08-12T02:29:02.529Z,87.20
2018-08-12T02:34:07.379Z,87.50
2018-08-12T02:39:12.797Z,87.70
2018-08-12T02:44:18.092Z,87.80
2018-08-12T02:49:22.811Z,87.80
2018-08-12T02:54:27.958Z,87.70
2018-08-12T02:59:32.425Z,88.50
2018-08-12T03:04:37.246Z,88.80
2018-08-12T03:09:42.604Z,89.30
2018-08-12T03:14:48.280Z,89.70
2018-08-12T03:19:53.399Z,90.00
2018-08-12T03:24:58.302Z,90.30
2018-08-12T03:30:03.088Z,90.60
2018-08-12T03:35:07.802Z,90.50
2018-08-12T03:40:13.746Z,90.70
2018-08-12T03:45:18.653Z,91.00
2018-08-12T03:50:23.485Z,91.00
2018-08-12T03:55:28.317Z,91.10
2018-08-12T04:00:33.108Z,91.20
2018-08-12T04:05:45.740Z,92.40
2018-08-12T04:10:50.507Z,92.80
2018-08-12T04:15:55.216Z,92.90
2018-08-12T04:20:59.896Z,92.90
2018-08-12T04:26:04.859Z,93.00
2018-08-12T04:31:09.602Z,92.40
2018-08-12T04:36:14.233Z,93.30
2018-08-12T04:41:19.088Z,93.70
2018-08-12T04:46:23.871Z,93.00
2018-08-12T04:51:28.977Z,93.30
2018-08-12T04:56:34.340Z,93.40
2018-08-12T05:01:39.200Z,92.90
2018-08-12T05:06:43.988Z,93.30
2018-08-12T05:11:48.632Z,93.00
2018-08-12T05:16:53.729Z,92.80
2018-08-12T05:21:58.220Z,92.90
2018-08-12T05:27:03.028Z,92.40
2018-08-12T05:32:08.531Z,91.30
2018-08-12T05:37:13.884Z,91.10
2018-08-12T05:42:18.862Z,90.80
2018-08-12T05:47:23.785Z,90.70
2018-08-12T05:52:28.749Z,90.70
2018-08-12T05:57:33.703Z,90.90
2018-08-12T06:02:39.627Z,89.90
2018-08-12T06:07:44.300Z,88.90
2018-08-12T06:12:49.049Z,88.70
2018-08-12T06:17:54.252Z,88.00
2018-08-12T06:22:58.867Z,88.00
2018-08-12T06:28:03.623Z,87.80
2018-08-12T06:33:08.812Z,87.50
2018-08-12T06:38:13.753Z,86.70
2018-08-12T06:43:18.844Z,86.40
2018-08-12T06:48:23.661Z,86.50
2018-08-12T06:53:28.408Z,86.20
2018-08-12T06:58:33.211Z,85.90
2018-08-12T07:03:38.081Z,85.50
2018-08-12T07:08:42.995Z,85.10
2018-08-12T07:13:47.623Z,85.20
2018-08-12T07:18:52.836Z,85.10
2018-08-12T07:23:57.903Z,85.40
2018-08-12T07:29:02.610Z,84.60
2018-08-12T07:34:07.539Z,85.50
2018-08-12T07:39:12.498Z,85.10
2018-08-12T07:44:17.559Z,84.30
2018-08-12T07:49:22.205Z,84.70
2018-08-12T07:54:27.449Z,84.80
2018-08-12T07:59:33.909Z,84.60
2018-08-12T08:04:39.040Z,85.60
2018-08-12T08:09:43.911Z,84.70
2018-08-12T08:14:49.112Z,85.60
2018-08-12T08:19:54.894Z,85.50
2018-08-12T08:24:59.732Z,84.60
2018-08-12T08:30:05.569Z,85.70
2018-08-12T08:35:11.096Z,84.80
2018-08-12T08:40:17.324Z,86.30
2018-08-12T08:45:22.791Z,86.30
2018-08-12T08:50:27.938Z,85.00
2018-08-12T08:55:32.970Z,83.70
2018-08-12T09:00:37.899Z,84.30
2018-08-12T09:05:43.307Z,83.80
2018-08-12T09:10:48.968Z,83.90
2018-08-12T09:15:53.612Z,83.30
2018-08-12T09:20:58.600Z,84.20
2018-08-12T09:26:03.421Z,85.10
2018-08-12T09:31:08.601Z,87.40
2018-08-12T09:36:13.470Z,86.80
2018-08-12T09:41:18.472Z,86.30
2018-08-12T09:46:24.021Z,84.80
2018-08-12T09:51:28.901Z,83.40
2018-08-12T09:56:35.365Z,83.60
2018-08-12T10:01:40.512Z,83.40
2018-08-12T10:06:45.208Z,83.20
2018-08-12T10:11:50.093Z,82.90
2018-08-12T10:17:01.053Z,84.20
2018-08-12T10:22:06.110Z,84.10
2018-08-12T10:27:10.852Z,83.20
2018-08-12T10:32:15.778Z,82.80
2018-08-12T10:37:21.077Z,83.30
2018-08-12T10:42:25.935Z,81.80
2018-08-12T10:47:30.968Z,81.70
2018-08-12T10:52:35.621Z,81.60
2018-08-12T10:57:40.573Z,80.40
2018-08-12T11:02:47.531Z,80.40
2018-08-12T11:07:55.046Z,79.50
2018-08-12T11:12:59.858Z,79.40
2018-08-12T11:18:04.614Z,76.70
2018-08-12T11:23:09.376Z,77.20
2018-08-12T11:28:14.363Z,76.50
2018-08-12T11:33:19.413Z,75.50
2018-08-12T11:38:24.749Z,74.80
2018-08-12T11:43:29.898Z,73.00
2018-08-12T11:48:35.291Z,72.10
2018-08-12T11:53:39.982Z,70.40
2018-08-12T11:58:50.487Z,67.40
2018-08-12T12:03:56.117Z,66.00
2018-08-12T12:09:01.090Z,66.80
2018-08-12T12:14:06.438Z,66.10
2018-08-12T12:19:11.173Z,66.10
2018-08-12T12:24:16.132Z,64.60
2018-08-12T12:29:21.030Z,65.40
2018-08-12T12:34:25.743Z,63.90
2018-08-12T12:39:30.646Z,61.00
2018-08-12T12:44:35.531Z,62.50
2018-08-12T12:49:40.363Z,60.20
2018-08-12T12:54:45.519Z,60.70
2018-08-12T12:59:51.391Z,59.20
2018-08-12T13:04:56.478Z,59.20
2018-08-12T13:10:02.506Z,57.80
2018-08-12T13:15:08.445Z,57.30
2018-08-12T13:20:15.813Z,56.60
2018-08-12T13:25:22.102Z,57.40
2018-08-12T13:30:26.976Z,56.70
2018-08-12T13:35:32.007Z,57.00
2018-08-12T13:40:36.743Z,57.20
2018-08-12T13:45:42.271Z,56.80
2018-08-12T13:50:47.648Z,57.50
2018-08-12T13:55:52.503Z,57.10
2018-08-12T14:00:58.275Z,59.00
2018-08-12T14:06:04.486Z,57.80
2018-08-12T14:11:09.256Z,56.70
2018-08-12T14:16:14.200Z,57.40
2018-08-12T14:21:19.202Z,57.60
2018-08-12T14:26:24.085Z,57.00
2018-08-12T14:31:29.134Z,57.60
2018-08-12T14:36:34.847Z,57.00
2018-08-12T14:41:39.611Z,55.80
2018-08-12T14:46:44.489Z,56.10
2018-08-12T15:03:33.143Z,57.70
2018-08-12T15:08:37.963Z,59.70
2018-08-12T15:13:42.950Z,59.40
2018-08-12T15:18:47.571Z,57.60
2018-08-12T15:23:52.318Z,59.30
2018-08-12T15:28:57.208Z,58.90
2018-08-12T15:34:02.818Z,59.40
2018-08-12T15:39:11.577Z,59.20
2018-08-12T15:44:17.423Z,59.20
2018-08-12T15:49:22.236Z,57.30
2018-08-12T15:54:27.109Z,58.70
2018-08-12T15:59:31.977Z,59.70
2018-08-12T16:04:36.985Z,59.40
2018-08-12T16:09:41.939Z,59.40
2018-08-12T16:14:46.542Z,58.90
2018-08-12T16:19:51.987Z,59.40
2018-08-12T16:24:59.242Z,59.90
2018-08-12T16:30:04.532Z,61.00
2018-08-12T16:35:11.124Z,60.60
2018-08-12T16:40:17.750Z,61.60
2018-08-12T16:45:22.769Z,62.00
2018-08-12T16:50:27.500Z,62.90
2018-08-12T16:55:33.787Z,62.50
2018-08-12T17:00:38.831Z,63.80
2018-08-12T17:06:01.986Z,64.40
2018-08-12T17:11:06.602Z,63.70
2018-08-12T17:16:12.996Z,67.70
2018-08-12T17:21:18.474Z,72.00
2018-08-12T17:26:23.382Z,71.50
2018-08-12T17:31:28.304Z,72.30
2018-08-12T17:36:39.177Z,73.90
2018-08-12T17:41:44.409Z,73.60
2018-08-12T17:46:49.570Z,74.50
2018-08-12T17:51:54.702Z,75.60
2018-08-12T17:57:04.775Z,76.10
2018-08-12T18:02:09.726Z,75.60
2018-08-12T18:07:14.651Z,75.00
2018-08-12T18:12:20.422Z,74.70
2018-08-12T18:17:25.267Z,75.50
2018-08-12T18:22:31.262Z,76.40
2018-08-12T18:27:36.391Z,76.60
2018-08-12T18:32:41.665Z,76.70
2018-08-12T18:37:46.536Z,77.00
2018-08-12T18:42:51.196Z,77.50
2018-08-12T18:47:56.023Z,77.70
2018-08-12T18:53:00.867Z,78.20
2018-08-12T18:58:05.952Z,79.70
2018-08-12T19:03:10.563Z,82.10
2018-08-12T19:08:15.468Z,85.20
2018-08-12T19:13:20.021Z,86.80
2018-08-12T19:18:24.760Z,88.30
2018-08-12T19:23:29.610Z,89.90
2018-08-12T19:28:34.873Z,90.30
2018-08-12T19:33:39.898Z,91.50
2018-08-12T19:38:44.838Z,91.90
2018-08-12T19:43:50.108Z,92.90
2018-08-12T19:48:55.920Z,93.70
2018-08-12T19:54:02.288Z,94.30
2018-08-12T19:59:07.082Z,95.50
2018-08-12T20:04:11.907Z,96.20
2018-08-12T20:09:16.728Z,96.70
2018-08-12T20:14:21.774Z,97.00
2018-08-12T20:19:27.470Z,97.20
2018-08-12T20:24:32.365Z,97.70
2018-08-12T20:29:37.138Z,97.70
2018-08-12T20:34:42.148Z,97.00
2018-08-12T20:39:46.983Z,96.50
2018-08-12T20:44:53.334Z,95.70
2018-08-12T20:49:59.969Z,95.60
2018-08-12T20:55:05.307Z,95.60
2018-08-12T21:00:11.168Z,96.00
2018-08-12T21:05:16.009Z,96.20
2018-08-12T21:10:20.919Z,96.20
2018-08-12T21:15:26.667Z,96.00
2018-08-12T21:20:31.705Z,96.20
2018-08-12T21:25:36.574Z,96.30
2018-08-12T21:30:41.639Z,96.70
2018-08-12T21:35:46.876Z,97.30
2018-08-12T21:40:51.543Z,97.90
2018-08-12T21:45:56.329Z,98.80
2018-08-12T21:51:01.162Z,99.30
2018-08-12T21:56:06.606Z,99.60
2018-08-12T22:01:11.797Z,99.60
2018-08-12T22:06:16.436Z,99.60
2018-08-12T22:11:21.937Z,99.60
2018-08-12T22:16:26.682Z,99.60
2018-08-12T22:21:31.423Z,99.60
2018-08-12T22:26:36.080Z,99.60
2018-08-12T22:31:40.837Z,99.60
2018-08-12T22:36:45.515Z,99.60
2018-08-12T22:41:50.271Z,99.60
2018-08-12T22:46:55.103Z,99.60
2018-08-12T22:51:59.940Z,99.60
2018-08-12T22:57:04.993Z,99.60
2018-08-12T23:02:09.816Z,99.60
2018-08-12T23:07:14.538Z,99.60
2018-08-12T23:12:19.432Z,99.60
2018-08-12T23:17:24.365Z,99.60
2018-08-12T23:22:29.313Z,99.60
2018-08-12T23:27:34.100Z,99.60
2018-08-12T23:32:39.711Z,99.60
2018-08-12T23:37:45.000Z,99.60
2018-08-12T23:42:49.760Z,99.60
2018-08-12T23:47:55.103Z,99.60
2018-08-12T23:52:59.917Z,99.60
2018-08-12T23:58:05.251Z,99.60
